Time;durP1;ratioP1;P1;durP2;ratioP2;P2;SDS_P1;SDS_P2;PMS_P1;PMS_P2;Temp;Humidity;BMP_temperature;BMP_pressure;BME280_temperature;BME280_humidity;BME280_pressure;Samples;Min_cycle;Max_cycle;Signal;HPM_P1;HPM_P2
2021/09/30 00:02:19;;;;;;;11.45;7.55;;;;;;;;;;5110829;27;20396;-67
2021/09/30 00:04:46;;;;;;;12.40;7.35;;;;;;;;;;5111251;28;20102;-67
2021/09/30 00:07:12;;;;;;;10.98;6.97;;;;;;;;;;5110991;28;20028;-67
2021/09/30 00:09:45;;;;;;;11.60;6.53;;;;;;;;;;5109395;28;20523;-67
2021/09/30 00:12:15;;;;;;;;;;;;;;;;;;5111418;28;20020;-67
2021/09/30 00:34:23;;;;;;;11.05;6.45;;;;;;;;;;5111189;28;20123;-66
2021/09/30 00:48:08;;;;;;;14.18;6.63;;;;;;;;;;5111444;27;20393;-66
2021/09/30 00:53:41;;;;;;;13.23;6.88;;;;;;;;;;5111199;28;20447;-67
2021/09/30 02:59:47;;;;;;;11.13;5.70;;;;;;;;;;5111118;28;20123;-68
2021/09/30 03:02:14;;;;;;;7.97;5.35;;;;;;;;;;5111087;28;20019;-68
2021/09/30 03:04:42;;;;;;;8.63;4.93;;;;;;;;;;5110655;28;20055;-67
2021/09/30 03:07:38;;;;;;;8.35;5.60;;;;;;;;;;5111319;27;20400;-66
2021/09/30 03:10:04;;;;;;;10.15;5.53;;;;;;;;;;5111117;28;20020;-67
2021/09/30 03:12:31;;;;;;;7.35;4.90;;;;;;;;;;5110918;28;20020;-69
2021/09/30 03:15:11;;;;;;;8.95;5.20;;;;;;;;;;5111223;28;20512;-68
2021/09/30 03:19:51;;;;;;;8.13;5.10;;;;;;;;;;5111084;27;20393;-67
2021/09/30 03:22:18;;;;;;;10.85;5.82;;;;;;;;;;5111356;28;20082;-67
2021/09/30 03:24:49;;;;;;;9.85;5.45;;;;;;;;;;5111173;28;20461;-67
2021/09/30 03:27:15;;;;;;;11.23;6.45;;;;;;;;;;5110901;28;20055;-68
2021/09/30 03:29:41;;;;;;;11.25;6.63;;;;;;;;;;5111133;28;20094;-68
2021/09/30 03:32:09;;;;;;;11.20;6.28;;;;;;;;;;5110955;28;20023;-68
2021/09/30 03:34:35;;;;;;;8.95;5.25;;;;;;;;;;5110702;28;20503;-68
2021/09/30 03:37:03;;;;;;;8.35;5.03;;;;;;;;;;5111202;28;20085;-68
2021/09/30 03:40:26;;;;;;;8.60;4.95;;;;;;;;;;5172948;27;20306;-67
2021/09/30 03:42:52;;;;;;;10.60;6.05;;;;;;;;;;5152261;27;20483;-67
2021/09/30 03:45:19;;;;;;;8.80;5.32;;;;;;;;;;5152230;27;20099;-67
2021/09/30 03:47:45;;;;;;;10.32;6.45;;;;;;;;;;5151925;27;20479;-67
2021/09/30 03:50:17;;;;;;;8.45;5.35;;;;;;;;;;5152187;27;20098;-67
2021/09/30 03:52:58;;;;;;;10.05;5.82;;;;;;;;;;5152555;27;20023;-66
2021/09/30 04:00:12;;;;;;;8.40;4.75;;;;;;;;;;5050648;28;20025;-67
2021/09/30 04:02:56;;;;;;;12.20;6.63;;;;;;;;;;5111302;27;20521;-69
2021/09/30 04:05:22;;;;;;;10.27;4.97;;;;;;;;;;5111254;28;20028;-67
2021/09/30 04:07:48;;;;;;;10.20;5.32;;;;;;;;;;5110756;28;20028;-68
2021/09/30 04:10:15;;;;;;;11.23;5.45;;;;;;;;;;5111261;28;20027;-67
2021/09/30 04:12:41;;;;;;;8.57;5.30;;;;;;;;;;5111111;28;20094;-67
2021/09/30 04:16:59;;;;;;;8.18;5.07;;;;;;;;;;5131954;27;20315;-67
2021/09/30 04:19:39;;;;;;;7.63;4.93;;;;;;;;;;5050971;28;20820;-67
2021/09/30 04:22:05;;;;;;;9.63;5.22;;;;;;;;;;5050250;28;20071;-67
2021/09/30 04:25:05;;;;;;;9.63;6.15;;;;;;;;;;5071209;27;20415;-67
2021/09/30 04:30:09;;;;;;;7.32;4.65;;;;;;;;;;5111003;27;20585;-66
2021/09/30 04:34:05;;;;;;;9.98;5.47;;;;;;;;;;5071338;28;20407;-69
2021/09/30 04:38:27;;;;;;;10.52;4.75;;;;;;;;;;5070916;28;20388;-68
2021/09/30 04:42:55;;;;;;;7.85;5.40;;;;;;;;;;5111515;27;20516;-67
2021/09/30 04:45:21;;;;;;;9.25;5.75;;;;;;;;;;5111335;28;20028;-67
2021/09/30 04:47:47;;;;;;;7.22;4.65;;;;;;;;;;5111159;28;20081;-67
2021/09/30 04:50:13;;;;;;;8.70;5.43;;;;;;;;;;5110742;28;20469;-67
2021/09/30 04:52:39;;;;;;;8.63;5.05;;;;;;;;;;5111092;28;20019;-68
2021/09/30 04:58:19;;;;;;;8.98;5.85;;;;;;;;;;5110862;27;20408;-67
2021/09/30 05:03:42;;;;;;;9.55;5.15;;;;;;;;;;5111637;27;20392;-67
2021/09/30 05:06:09;;;;;;;9.23;5.47;;;;;;;;;;5110776;28;20039;-69
2021/09/30 05:11:50;;;;;;;9.85;5.57;;;;;;;;;;5110946;27;20462;-67
2021/09/30 05:14:16;;;;;;;8.63;5.22;;;;;;;;;;5111185;28;20063;-71
2021/09/30 05:19:32;;;;;;;10.05;4.72;;;;;;;;;;5121764;27;20117;-70
2021/09/30 05:23:11;;;;;;;8.10;5.10;;;;;;;;;;5108528;27;20396;-70
2021/09/30 05:25:37;;;;;;;9.38;5.30;;;;;;;;;;5108699;28;20023;-70
2021/09/30 05:28:03;;;;;;;9.35;5.80;;;;;;;;;;5110720;28;20031;-69
2021/09/30 05:30:30;;;;;;;7.82;4.97;;;;;;;;;;5106310;28;20413;-74
2021/09/30 05:34:27;;;;;;;7.57;4.90;;;;;;;;;;5103117;27;20804;-72
2021/09/30 05:36:53;;;;;;;9.75;5.70;;;;;;;;;;5106846;28;20028;-72
2021/09/30 05:39:19;;;;;;;13.43;6.65;;;;;;;;;;5104524;28;20026;-71
2021/09/30 05:41:48;;;;;;;11.27;6.55;;;;;;;;;;5098265;28;20472;-71
2021/09/30 05:44:20;;;;;;;11.15;6.65;;;;;;;;;;5107798;28;20528;-72
2021/09/30 05:46:52;;;;;;;13.27;7.05;;;;;;;;;;5108453;28;20131;-72
2021/09/30 05:49:57;;;;;;;10.38;6.07;;;;;;;;;;5109641;27;20389;-73
2021/09/30 05:53:35;;;;;;;8.90;4.97;;;;;;;;;;5067747;28;20403;-72
2021/09/30 05:56:02;;;;;;;10.60;6.55;;;;;;;;;;5067127;28;20024;-73
2021/09/30 05:58:28;;;;;;;10.65;6.07;;;;;;;;;;5069095;28;20149;-73
2021/09/30 06:01:33;;;;;;;9.68;5.70;;;;;;;;;;5068876;28;20096;-71
2021/09/30 06:13:17;;;;;;;8.50;5.22;;;;;;;;;;5071750;28;20089;-70
2021/09/30 06:15:45;;;;;;;10.02;6.13;;;;;;;;;;5089547;28;20021;-70
2021/09/30 06:19:56;;;;;;;10.20;6.60;;;;;;;;;;5106995;27;20385;-68
2021/09/30 06:22:23;;;;;;;11.98;5.80;;;;;;;;;;5104700;28;20073;-71
2021/09/30 06:29:16;;;;;;;11.43;6.32;;;;;;;;;;5108254;27;20397;-70
2021/09/30 06:33:37;;;;;;;9.43;5.00;;;;;;;;;;5108674;27;20389;-71
2021/09/30 06:36:04;;;;;;;8.95;5.53;;;;;;;;;;5106442;28;20030;-71
2021/09/30 06:38:30;;;;;;;14.35;6.28;;;;;;;;;;5109242;28;20036;-71
2021/09/30 06:40:56;;;;;;;12.48;6.70;;;;;;;;;;5110102;28;20024;-70
2021/09/30 06:43:23;;;;;;;11.35;6.63;;;;;;;;;;5109471;28;20511;-69
2021/09/30 06:45:50;;;;;;;12.95;7.13;;;;;;;;;;5110052;28;20139;-69
2021/09/30 06:50:07;;;;;;;12.75;6.97;;;;;;;;;;5109860;27;20397;-70
2021/09/30 06:52:33;;;;;;;15.82;7.68;;;;;;;;;;5109198;28;20047;-70
2021/09/30 06:54:59;;;;;;;13.68;8.25;;;;;;;;;;5090091;28;20029;-69
2021/09/30 06:58:11;;;;;;;13.15;7.00;;;;;;;;;;5109790;27;20524;-69
2021/09/30 07:00:41;;;;;;;11.77;7.35;;;;;;;;;;5110205;28;20561;-68
2021/09/30 07:03:07;;;;;;;12.70;7.13;;;;;;;;;;5109156;28;20119;-68
2021/09/30 07:05:34;;;;;;;11.32;7.05;;;;;;;;;;5110243;28;20027;-69
2021/09/30 07:08:03;;;;;;;16.02;7.97;;;;;;;;;;5110308;28;20019;-69
2021/09/30 07:10:29;;;;;;;11.02;6.57;;;;;;;;;;5104663;28;20107;-69
2021/09/30 07:14:16;;;;;;;13.52;7.30;;;;;;;;;;5110235;27;20397;-69
2021/09/30 07:19:52;;;;;;;10.75;7.03;;;;;;;;;;5110866;27;20855;-69
2021/09/30 07:22:18;;;;;;;15.48;8.57;;;;;;;;;;5109456;28;20032;-68
2021/09/30 07:24:44;;;;;;;11.07;6.85;;;;;;;;;;5103987;28;20479;-67
2021/09/30 07:27:10;;;;;;;12.57;7.90;;;;;;;;;;5107527;28;20337;-68
2021/09/30 07:29:37;;;;;;;10.50;6.93;;;;;;;;;;5108561;28;20032;-67
2021/09/30 07:32:04;;;;;;;11.18;6.82;;;;;;;;;;5108645;28;20107;-69
2021/09/30 07:35:48;;;;;;;9.68;6.68;;;;;;;;;;5109469;27;21056;-68
2021/09/30 07:38:15;;;;;;;12.32;7.22;;;;;;;;;;5110302;28;20069;-68
2021/09/30 07:40:41;;;;;;;16.15;7.35;;;;;;;;;;5107096;28;20035;-66
2021/09/30 07:43:08;;;;;;;12.70;7.07;;;;;;;;;;5108253;28;20481;-67
2021/09/30 07:45:35;;;;;;;10.65;6.40;;;;;;;;;;5108698;28;20028;-68
2021/09/30 07:48:01;;;;;;;11.63;7.00;;;;;;;;;;5108011;28;20353;-67
2021/09/30 07:55:25;;;;;;;11.13;6.78;;;;;;;;;;5109816;27;20401;-66
2021/09/30 08:01:27;;;;;;;10.50;6.25;;;;;;;;;;5108486;27;20524;-68
2021/09/30 08:04:05;;;;;;;10.35;6.65;;;;;;;;;;5068099;28;20481;-70
2021/09/30 08:06:31;;;;;;;11.65;7.53;;;;;;;;;;5068226;28;20024;-67
2021/09/30 08:11:14;;;;;;;10.82;6.50;;;;;;;;;;5109106;27;20974;-69
2021/09/30 08:13:40;;;;;;;9.68;6.15;;;;;;;;;;5109433;28;20050;-71
2021/09/30 08:16:07;;;;;;;8.45;5.90;;;;;;;;;;5109529;28;20119;-70
2021/09/30 08:18:33;;;;;;;12.35;6.28;;;;;;;;;;5108319;28;20077;-69
2021/09/30 08:21:00;;;;;;;9.95;6.20;;;;;;;;;;5103057;28;20042;-69
2021/09/30 08:23:26;;;;;;;10.40;6.55;;;;;;;;;;5109605;28;20024;-68
2021/09/30 08:29:02;;;;;;;8.18;5.63;;;;;;;;;;5069873;28;20415;-67
2021/09/30 08:31:28;;;;;;;10.55;6.50;;;;;;;;;;5067058;28;20032;-67
2021/09/30 08:33:58;;;;;;;9.00;5.97;;;;;;;;;;5059531;28;20031;-68
2021/09/30 08:36:24;;;;;;;12.93;5.88;;;;;;;;;;5050002;28;20021;-69
2021/09/30 08:38:51;;;;;;;9.82;6.10;;;;;;;;;;5046817;28;20082;-69
2021/09/30 08:41:17;;;;;;;11.80;6.82;;;;;;;;;;5050186;28;20490;-70
2021/09/30 08:46:48;;;;;;;15.80;6.65;;;;;;;;;;5110681;27;20874;-69
2021/09/30 08:52:17;;;;;;;10.95;5.90;;;;;;;;;;5110237;27;20506;-69
2021/09/30 08:54:43;;;;;;;10.40;6.45;;;;;;;;;;5108971;28;20119;-69
2021/09/30 08:57:09;;;;;;;11.82;6.28;;;;;;;;;;5110458;28;20103;-69
2021/09/30 08:59:36;;;;;;;11.90;6.70;;;;;;;;;;5107519;28;20024;-69
2021/09/30 09:04:15;;;;;;;9.95;6.60;;;;;;;;;;5107834;27;20450;-68
2021/09/30 09:06:41;;;;;;;11.77;6.28;;;;;;;;;;5096839;28;20032;-69
2021/09/30 09:09:21;;;;;;;10.80;6.72;;;;;;;;;;5109485;28;20020;-69
2021/09/30 09:11:49;;;;;;;10.60;5.53;;;;;;;;;;5100427;28;20028;-68
2021/09/30 09:14:26;;;;;;;10.52;5.90;;;;;;;;;;5103425;28;20020;-68
2021/09/30 09:17:03;;;;;;;9.13;5.57;;;;;;;;;;5108540;28;20036;-69
2021/09/30 09:19:38;;;;;;;10.20;6.00;;;;;;;;;;5097329;28;20021;-69
2021/09/30 09:22:06;;;;;;;9.27;6.28;;;;;;;;;;5096272;28;20442;-71
2021/09/30 09:25:10;;;;;;;9.07;5.70;;;;;;;;;;5110361;27;20401;-69
2021/09/30 09:27:45;;;;;;;13.00;5.80;;;;;;;;;;5107017;28;20028;-69
2021/09/30 09:30:30;;;;;;;11.68;6.80;;;;;;;;;;5119230;28;20534;-69
2021/09/30 09:33:00;;;;;;;14.68;6.40;;;;;;;;;;5096834;28;20115;-69
2021/09/30 09:35:27;;;;;;;8.25;5.80;;;;;;;;;;5088574;28;20031;-68
2021/09/30 09:38:00;;;;;;;12.13;6.50;;;;;;;;;;5092278;28;20032;-68
2021/09/30 09:40:26;;;;;;;13.13;5.97;;;;;;;;;;5109455;28;20051;-69
2021/09/30 09:42:53;;;;;;;11.27;5.93;;;;;;;;;;5110636;28;20058;-68
2021/09/30 09:45:19;;;;;;;7.60;5.05;;;;;;;;;;5110093;28;20543;-68
2021/09/30 09:47:45;;;;;;;12.07;6.10;;;;;;;;;;5110589;28;20024;-69
2021/09/30 09:50:20;;;;;;;9.75;4.85;;;;;;;;;;5109908;28;20028;-68
2021/09/30 09:52:49;;;;;;;9.07;5.40;;;;;;;;;;5109549;28;20089;-67
2021/09/30 09:57:13;;;;;;;13.15;6.82;;;;;;;;;;5109786;27;20392;-67
2021/09/30 09:59:42;;;;;;;16.95;6.03;;;;;;;;;;5101649;28;20026;-68
2021/09/30 10:02:08;;;;;;;9.05;5.95;;;;;;;;;;5110713;28;20019;-69
2021/09/30 10:04:35;;;;;;;7.65;4.22;;;;;;;;;;5102140;28;20047;-68
2021/09/30 10:07:03;;;;;;;8.65;5.40;;;;;;;;;;5089205;28;20025;-68
2021/09/30 10:09:29;;;;;;;8.55;4.95;;;;;;;;;;5089585;28;20449;-69
2021/09/30 10:11:55;;;;;;;10.32;5.80;;;;;;;;;;5097859;28;20021;-67
2021/09/30 10:14:21;;;;;;;14.40;5.78;;;;;;;;;;5088791;28;20036;-67
2021/09/30 10:17:29;;;;;;;7.50;4.43;;;;;;;;;;5109014;27;20397;-68
2021/09/30 10:19:58;;;;;;;11.38;5.63;;;;;;;;;;5108095;28;20016;-68
2021/09/30 10:22:26;;;;;;;12.95;5.72;;;;;;;;;;5107755;28;20047;-69
2021/09/30 10:24:55;;;;;;;14.70;5.25;;;;;;;;;;5109527;28;20499;-70
2021/09/30 10:31:30;;;;;;;13.05;5.65;;;;;;;;;;5108968;27;20516;-68
2021/09/30 10:33:58;;;;;;;10.02;5.47;;;;;;;;;;5108609;28;20047;-68
2021/09/30 10:38:21;;;;;;;9.05;5.78;;;;;;;;;;5068359;28;20404;-67
2021/09/30 10:41:20;;;;;;;9.95;4.70;;;;;;;;;;5057883;28;20051;-68
2021/09/30 10:43:47;;;;;;;12.73;5.82;;;;;;;;;;5044731;28;20033;-66
2021/09/30 10:46:45;;;;;;;8.93;4.80;;;;;;;;;;5104809;27;20900;-66
2021/09/30 10:49:27;;;;;;;11.07;5.07;;;;;;;;;;5095450;28;20074;-66
2021/09/30 10:53:48;;;;;;;8.45;4.40;;;;;;;;;;5106829;27;20397;-67
2021/09/30 10:56:32;;;;;;;10.13;4.75;;;;;;;;;;5158319;27;20106;-66
2021/09/30 11:06:23;;;;;;;7.35;3.83;;;;;;;;;;5105769;27;20426;-68
2021/09/30 11:09:28;;;;;;;6.78;4.15;;;;;;;;;;5106925;28;20027;-68
2021/09/30 11:14:53;;;;;;;7.63;3.80;;;;;;;;;;5067623;28;20404;-69
2021/09/30 11:17:36;;;;;;;7.80;3.90;;;;;;;;;;5067146;28;20020;-67
2021/09/30 11:21:48;;;;;;;7.40;4.50;;;;;;;;;;5101304;27;20926;-67
2021/09/30 11:24:20;;;;;;;12.60;4.32;;;;;;;;;;5097078;28;20388;-67
2021/09/30 11:26:53;;;;;;;7.88;4.47;;;;;;;;;;5098851;28;20102;-66
2021/09/30 11:29:22;;;;;;;11.40;4.13;;;;;;;;;;5097468;28;20019;-68
2021/09/30 11:31:54;;;;;;;8.07;4.18;;;;;;;;;;5098113;28;20325;-67
2021/09/30 11:34:24;;;;;;;7.05;4.47;;;;;;;;;;5096890;28;20018;-68
2021/09/30 11:40:52;;;;;;;8.70;4.03;;;;;;;;;;5171502;27;20356;-68
2021/09/30 11:44:15;;;;;;;10.13;4.45;;;;;;;;;;5168775;27;20429;-68
2021/09/30 11:47:07;;;;;;;6.32;3.38;;;;;;;;;;5107800;27;20416;-67
2021/09/30 11:49:40;;;;;;;6.45;3.65;;;;;;;;;;5108642;28;20096;-69
2021/09/30 11:53:54;;;;;;;7.55;4.35;;;;;;;;;;5109374;27;20397;-68
2021/09/30 11:56:20;;;;;;;7.68;4.18;;;;;;;;;;5110515;28;20023;-67
2021/09/30 11:59:07;;;;;;;10.38;4.35;;;;;;;;;;5109892;28;20422;-67
2021/09/30 12:01:37;;;;;;;6.72;3.80;;;;;;;;;;5109283;28;20110;-67
2021/09/30 12:04:05;;;;;;;7.45;4.03;;;;;;;;;;5110034;28;20024;-66
2021/09/30 12:06:48;;;;;;;11.15;5.20;;;;;;;;;;5108356;27;20392;-67
2021/09/30 12:09:16;;;;;;;8.25;4.25;;;;;;;;;;5102588;28;20697;-67
2021/09/30 12:11:52;;;;;;;6.15;3.72;;;;;;;;;;5106837;28;20054;-66
2021/09/30 12:14:19;;;;;;;6.40;3.45;;;;;;;;;;5107390;28;20024;-66
2021/09/30 12:17:00;;;;;;;7.15;3.72;;;;;;;;;;5107559;28;20020;-66
2021/09/30 12:19:36;;;;;;;10.32;4.25;;;;;;;;;;5107921;28;20107;-67
2021/09/30 12:22:03;;;;;;;10.07;4.32;;;;;;;;;;5108821;28;20016;-68
2021/09/30 12:24:30;;;;;;;6.53;3.47;;;;;;;;;;5106279;28;20016;-69
2021/09/30 12:26:57;;;;;;;7.53;3.75;;;;;;;;;;5109695;28;20388;-67
2021/09/30 12:29:23;;;;;;;8.75;4.70;;;;;;;;;;5110161;28;20087;-67
2021/09/30 12:32:10;;;;;;;9.30;4.30;;;;;;;;;;5108662;28;20028;-67
2021/09/30 12:34:36;;;;;;;9.68;4.50;;;;;;;;;;5087286;28;20024;-68
2021/09/30 12:37:03;;;;;;;9.88;4.80;;;;;;;;;;5089225;28;20074;-67
2021/09/30 12:40:35;;;;;;;9.77;4.38;;;;;;;;;;5108437;27;20393;-68
2021/09/30 12:43:04;;;;;;;8.35;4.55;;;;;;;;;;5109190;28;20417;-67
2021/09/30 12:45:32;;;;;;;10.13;4.70;;;;;;;;;;5109803;28;20063;-68
2021/09/30 12:48:02;;;;;;;11.38;5.00;;;;;;;;;;5110453;28;20380;-68
2021/09/30 12:50:34;;;;;;;8.45;3.90;;;;;;;;;;5110855;28;20475;-70
2021/09/30 12:53:02;;;;;;;8.63;4.50;;;;;;;;;;5108921;28;20054;-67
2021/09/30 12:57:54;;;;;;;6.43;4.13;;;;;;;;;;5110705;27;20661;-69
2021/09/30 13:00:21;;;;;;;13.85;4.93;;;;;;;;;;5111179;28;20107;-70
2021/09/30 13:02:48;;;;;;;8.07;4.35;;;;;;;;;;5110752;28;20028;-68
2021/09/30 13:05:15;;;;;;;6.97;4.10;;;;;;;;;;5111162;28;20020;-67
2021/09/30 13:07:45;;;;;;;9.70;3.75;;;;;;;;;;5111028;28;20032;-69
2021/09/30 13:12:01;;;;;;;10.25;5.45;;;;;;;;;;5111906;27;20524;-70
2021/09/30 13:14:28;;;;;;;6.78;3.60;;;;;;;;;;5111439;28;20094;-70
2021/09/30 13:21:11;;;;;;;7.72;3.78;;;;;;;;;;5070927;28;20761;-69
2021/09/30 13:24:15;;;;;;;9.35;4.57;;;;;;;;;;5111096;27;20430;-70
2021/09/30 13:26:42;;;;;;;7.00;4.32;;;;;;;;;;5111260;28;20020;-70
2021/09/30 13:31:05;;;;;;;7.80;3.50;;;;;;;;;;5102504;27;1505534;-70
2021/09/30 13:35:18;;;;;;;7.13;3.40;;;;;;;;;;5111989;27;20396;-69
2021/09/30 13:39:54;;;;;;;9.95;4.05;;;;;;;;;;5111446;27;20385;-70
2021/09/30 13:42:21;;;;;;;5.97;3.25;;;;;;;;;;5111457;28;20032;-69
2021/09/30 13:44:47;;;;;;;8.30;3.92;;;;;;;;;;5109530;28;20024;-69
2021/09/30 13:47:13;;;;;;;6.35;3.58;;;;;;;;;;5111223;28;20074;-70
2021/09/30 13:49:39;;;;;;;6.55;3.95;;;;;;;;;;5111153;28;20026;-70
2021/09/30 13:52:06;;;;;;;6.80;3.63;;;;;;;;;;5110767;28;20023;-69
2021/09/30 14:01:12;;;;;;;8.60;3.35;;;;;;;;;;5111738;27;20741;-70
2021/09/30 14:03:38;;;;;;;6.90;3.97;;;;;;;;;;5111220;28;20388;-69
2021/09/30 14:06:04;;;;;;;9.52;3.50;;;;;;;;;;5110601;28;20027;-69
2021/09/30 14:09:32;;;;;;;8.43;3.97;;;;;;;;;;5111514;27;20388;-69
2021/09/30 14:12:49;;;;;;;6.47;3.22;;;;;;;;;;5070484;28;20505;-69
2021/09/30 14:15:15;;;;;;;6.80;3.60;;;;;;;;;;5070696;28;20086;-71
2021/09/30 14:19:30;;;;;;;9.00;4.40;;;;;;;;;;5110804;27;20409;-70
2021/09/30 14:22:57;;;;;;;6.45;3.22;;;;;;;;;;5111773;27;20384;-70
2021/09/30 14:27:34;;;;;;;8.75;3.95;;;;;;;;;;5111299;27;20396;-70
2021/09/30 14:30:00;;;;;;;7.90;4.28;;;;;;;;;;5111222;28;20032;-69
2021/09/30 14:32:27;;;;;;;7.63;3.83;;;;;;;;;;5111809;28;20024;-70
2021/09/30 14:34:53;;;;;;;7.57;4.10;;;;;;;;;;5110822;28;20028;-70
2021/09/30 14:37:20;;;;;;;9.60;4.70;;;;;;;;;;5109764;28;20465;-71
2021/09/30 14:39:46;;;;;;;9.02;4.85;;;;;;;;;;5111131;28;20027;-70
2021/09/30 14:42:12;;;;;;;7.57;4.22;;;;;;;;;;5110702;28;20020;-70
2021/09/30 14:44:39;;;;;;;9.00;4.20;;;;;;;;;;5111043;28;20059;-69
2021/09/30 14:47:05;;;;;;;6.95;3.47;;;;;;;;;;5110840;28;20035;-69
2021/09/30 14:49:37;;;;;;;8.80;4.60;;;;;;;;;;5110574;28;20058;-70
2021/09/30 14:52:44;;;;;;;8.50;4.25;;;;;;;;;;5111313;27;20412;-69
2021/09/30 14:55:11;;;;;;;11.75;5.78;;;;;;;;;;5110871;28;20024;-69
2021/09/30 14:59:41;;;;;;;12.80;4.22;;;;;;;;;;5071109;28;20835;-70
2021/09/30 15:02:08;;;;;;;9.82;4.55;;;;;;;;;;5067306;28;20039;-70
2021/09/30 15:04:34;;;;;;;8.88;4.60;;;;;;;;;;5066053;28;20035;-69
2021/09/30 15:07:00;;;;;;;7.38;4.00;;;;;;;;;;5070610;28;20021;-69
2021/09/30 15:11:31;;;;;;;9.13;4.15;;;;;;;;;;5086397;28;20395;-70
2021/09/30 15:13:57;;;;;;;7.60;4.28;;;;;;;;;;5070790;28;20036;-70
2021/09/30 15:16:26;;;;;;;9.27;4.88;;;;;;;;;;5070393;28;20020;-70
2021/09/30 15:18:53;;;;;;;10.55;4.85;;;;;;;;;;5069392;28;20028;-70
2021/09/30 15:23:25;;;;;;;8.95;4.50;;;;;;;;;;5111598;27;20450;-69
2021/09/30 15:26:44;;;;;;;6.40;3.28;;;;;;;;;;5111551;27;20450;-69
2021/09/30 15:29:11;;;;;;;6.97;3.72;;;;;;;;;;5111257;28;20060;-69
2021/09/30 15:31:39;;;;;;;6.22;3.70;;;;;;;;;;5110891;28;20051;-69
2021/09/30 15:35:42;;;;;;;8.85;4.45;;;;;;;;;;5131795;27;20668;-70
2021/09/30 15:42:49;;;;;;;9.55;5.03;;;;;;;;;;5111537;27;20585;-69
2021/09/30 15:45:16;;;;;;;11.75;4.38;;;;;;;;;;5110844;28;20050;-68
2021/09/30 15:47:42;;;;;;;7.75;4.32;;;;;;;;;;5111177;28;20024;-69
2021/09/30 15:50:09;;;;;;;8.45;3.72;;;;;;;;;;5111156;28;20480;-69
2021/09/30 15:52:35;;;;;;;6.95;3.40;;;;;;;;;;5110703;28;20034;-70
2021/09/30 15:57:40;;;;;;;6.45;2.85;;;;;;;;;;5111758;27;20448;-70
2021/09/30 16:00:07;;;;;;;7.97;3.75;;;;;;;;;;5110848;28;20077;-70
2021/09/30 16:02:34;;;;;;;7.20;3.45;;;;;;;;;;5111232;28;20027;-70
2021/09/30 16:05:01;;;;;;;8.05;3.20;;;;;;;;;;5110803;28;20078;-70
2021/09/30 16:07:28;;;;;;;7.65;4.05;;;;;;;;;;5111068;28;20016;-70
2021/09/30 16:10:30;;;;;;;7.90;4.55;;;;;;;;;;5111463;27;20400;-69
2021/09/30 16:13:38;;;;;;;7.55;4.15;;;;;;;;;;5111130;27;20397;-70
2021/09/30 16:16:05;;;;;;;7.32;3.58;;;;;;;;;;5109959;28;20110;-70
2021/09/30 16:21:39;;;;;;;7.65;3.70;;;;;;;;;;5111215;27;20396;-69
2021/09/30 16:24:05;;;;;;;7.38;3.75;;;;;;;;;;5111320;28;20030;-69
2021/09/30 16:27:55;;;;;;;10.38;4.75;;;;;;;;;;5050391;28;20425;-69
2021/09/30 16:30:22;;;;;;;11.98;5.18;;;;;;;;;;5050698;28;20478;-69
2021/09/30 16:32:48;;;;;;;7.13;3.80;;;;;;;;;;5051114;28;20051;-69
2021/09/30 16:37:07;;;;;;;10.48;5.38;;;;;;;;;;5111480;27;20501;-69
2021/09/30 16:39:34;;;;;;;12.52;6.65;;;;;;;;;;5111162;28;20023;-68
2021/09/30 16:43:26;;;;;;;11.95;7.70;;;;;;;;;;5111454;27;20401;-70
2021/09/30 16:45:52;;;;;;;9.70;6.15;;;;;;;;;;5111156;28;20035;-70
2021/09/30 16:48:19;;;;;;;14.82;7.15;;;;;;;;;;5110680;28;20051;-70
2021/09/30 16:50:45;;;;;;;10.95;7.00;;;;;;;;;;5111188;28;20386;-70
2021/09/30 16:53:13;;;;;;;10.82;5.88;;;;;;;;;;5111162;28;20031;-70
2021/09/30 16:55:40;;;;;;;11.52;6.25;;;;;;;;;;5110707;28;20073;-70
2021/09/30 16:58:06;;;;;;;17.02;8.30;;;;;;;;;;5111172;28;20384;-70
2021/09/30 17:00:34;;;;;;;16.95;8.00;;;;;;;;;;5110949;28;20052;-71
2021/09/30 17:03:00;;;;;;;13.98;8.95;;;;;;;;;;5110572;28;20077;-70
2021/09/30 17:05:26;;;;;;;16.30;8.25;;;;;;;;;;5110886;28;20016;-69
2021/09/30 17:07:52;;;;;;;20.40;9.95;;;;;;;;;;5110922;28;20030;-69
2021/09/30 17:10:19;;;;;;;15.73;8.00;;;;;;;;;;5110509;28;20020;-69
2021/09/30 17:12:47;;;;;;;18.45;10.18;;;;;;;;;;5110655;28;20028;-69
2021/09/30 17:15:14;;;;;;;14.65;7.13;;;;;;;;;;5110664;28;20024;-68
2021/09/30 17:19:21;;;;;;;11.70;5.88;;;;;;;;;;5111316;27;20420;-69
2021/09/30 17:21:47;;;;;;;10.95;5.88;;;;;;;;;;5111190;28;20384;-69
2021/09/30 17:24:14;;;;;;;13.27;6.88;;;;;;;;;;5110790;28;20106;-69
2021/09/30 17:26:40;;;;;;;10.80;6.95;;;;;;;;;;5111260;28;20042;-69
2021/09/30 17:30:25;;;;;;;12.25;6.20;;;;;;;;;;5111324;27;20443;-69
2021/09/30 17:32:52;;;;;;;12.38;6.35;;;;;;;;;;5111257;28;20029;-69
2021/09/30 17:35:18;;;;;;;12.02;5.40;;;;;;;;;;5109930;28;20024;-69
2021/09/30 17:37:44;;;;;;;9.40;5.10;;;;;;;;;;5110712;28;20491;-69
2021/09/30 17:40:12;;;;;;;7.88;4.63;;;;;;;;;;5111213;28;20027;-69
2021/09/30 17:42:39;;;;;;;9.98;4.97;;;;;;;;;;5111042;28;20051;-69
2021/09/30 17:45:06;;;;;;;8.57;4.90;;;;;;;;;;5110720;28;20024;-69
2021/09/30 17:47:52;;;;;;;9.68;5.57;;;;;;;;;;5111628;27;20396;-70
2021/09/30 17:50:19;;;;;;;11.50;5.60;;;;;;;;;;5111179;28;20024;-68
2021/09/30 17:52:45;;;;;;;11.00;4.78;;;;;;;;;;5110791;28;20099;-69
2021/09/30 17:55:12;;;;;;;10.18;5.25;;;;;;;;;;5111147;28;20028;-69
2021/09/30 17:57:39;;;;;;;11.13;5.40;;;;;;;;;;5110650;28;20027;-69
2021/09/30 18:01:08;;;;;;;8.98;5.22;;;;;;;;;;5111573;27;20400;-69
2021/09/30 18:03:36;;;;;;;8.80;5.35;;;;;;;;;;5111299;28;20028;-69
2021/09/30 18:06:02;;;;;;;8.85;5.97;;;;;;;;;;5110749;28;20020;-69
2021/09/30 18:08:28;;;;;;;9.30;5.75;;;;;;;;;;5109804;28;20403;-69
2021/09/30 18:10:56;;;;;;;10.82;5.18;;;;;;;;;;5110892;28;20480;-69
2021/09/30 18:13:23;;;;;;;6.47;4.10;;;;;;;;;;5110553;28;20027;-68
2021/09/30 18:15:49;;;;;;;10.35;5.15;;;;;;;;;;5109613;28;20054;-68
2021/09/30 18:18:16;;;;;;;7.60;4.55;;;;;;;;;;5110832;28;20036;-70
2021/09/30 18:20:43;;;;;;;7.70;4.57;;;;;;;;;;5110336;28;20039;-69
2021/09/30 18:23:14;;;;;;;9.13;6.18;;;;;;;;;;5110702;28;20015;-69
2021/09/30 18:28:18;;;;;;;9.43;5.15;;;;;;;;;;5131697;27;20674;-69
2021/09/30 18:30:44;;;;;;;11.23;6.32;;;;;;;;;;5111089;28;20039;-69
2021/09/30 18:34:01;;;;;;;10.90;5.68;;;;;;;;;;5173023;27;20806;-70
2021/09/30 18:36:27;;;;;;;8.90;4.88;;;;;;;;;;5152330;27;20054;-70
2021/09/30 18:38:54;;;;;;;8.73;5.47;;;;;;;;;;5133786;27;20069;-69
2021/09/30 18:42:04;;;;;;;9.63;5.63;;;;;;;;;;5111443;27;20405;-70
2021/09/30 18:46:05;;;;;;;9.40;5.70;;;;;;;;;;5111576;27;20412;-68
2021/09/30 18:50:10;;;;;;;9.13;5.68;;;;;;;;;;5111200;27;20915;-67
2021/09/30 18:54:09;;;;;;;7.68;4.82;;;;;;;;;;5111551;27;20405;-70
2021/09/30 18:58:16;;;;;;;8.07;5.07;;;;;;;;;;5111657;27;20923;-70
2021/09/30 19:00:42;;;;;;;8.93;5.47;;;;;;;;;;5111204;28;20106;-69
2021/09/30 19:03:09;;;;;;;10.63;5.88;;;;;;;;;;5111100;28;20512;-67
2021/09/30 19:07:47;;;;;;;10.90;5.93;;;;;;;;;;5111137;27;20462;-68
2021/09/30 19:10:53;;;;;;;11.40;5.90;;;;;;;;;;5111242;27;20449;-69
2021/09/30 19:15:51;;;;;;;9.10;5.72;;;;;;;;;;5111053;27;20460;-69
2021/09/30 19:18:21;;;;;;;7.60;5.05;;;;;;;;;;5111268;28;20395;-69
2021/09/30 19:20:48;;;;;;;12.40;5.80;;;;;;;;;;5111144;28;20077;-69
2021/09/30 19:23:14;;;;;;;8.38;5.03;;;;;;;;;;5110949;28;20020;-70
2021/09/30 19:25:41;;;;;;;11.43;6.43;;;;;;;;;;5111195;28;20031;-69
2021/09/30 19:28:07;;;;;;;10.77;6.28;;;;;;;;;;5111092;28;20024;-69
2021/09/30 19:31:03;;;;;;;9.98;6.03;;;;;;;;;;5110252;27;20401;-69
2021/09/30 19:34:35;;;;;;;10.68;6.22;;;;;;;;;;5109167;27;20454;-70
2021/09/30 19:37:01;;;;;;;8.07;5.15;;;;;;;;;;5108779;28;20028;-70
2021/09/30 19:41:33;;;;;;;11.00;6.80;;;;;;;;;;5109176;27;20420;-70
2021/09/30 19:43:59;;;;;;;11.35;6.75;;;;;;;;;;5109072;28;20038;-69
2021/09/30 19:46:27;;;;;;;11.63;6.03;;;;;;;;;;5109276;28;20523;-69
2021/09/30 19:48:53;;;;;;;10.73;6.78;;;;;;;;;;5110339;28;20042;-70
2021/09/30 19:51:20;;;;;;;10.38;6.88;;;;;;;;;;5109409;28;20048;-69
2021/09/30 19:53:47;;;;;;;10.18;5.57;;;;;;;;;;5111086;28;20027;-70
2021/09/30 19:56:17;;;;;;;9.45;5.75;;;;;;;;;;5111006;28;20043;-68
2021/09/30 19:58:43;;;;;;;9.68;6.57;;;;;;;;;;5110548;28;20068;-69
2021/09/30 20:04:51;;;;;;;11.35;6.60;;;;;;;;;;5111219;27;20409;-70
2021/09/30 20:08:47;;;;;;;10.25;5.35;;;;;;;;;;5111403;27;20888;-69
2021/09/30 20:11:13;;;;;;;12.68;6.47;;;;;;;;;;5110853;28;20499;-70
2021/09/30 20:13:53;;;;;;;11.43;6.30;;;;;;;;;;5051069;28;20425;-69
2021/09/30 20:16:19;;;;;;;8.23;5.22;;;;;;;;;;5049441;28;20034;-69
2021/09/30 20:18:46;;;;;;;7.78;4.95;;;;;;;;;;5050484;28;20033;-70
2021/09/30 20:23:19;;;;;;;10.57;5.78;;;;;;;;;;5070810;28;20395;-70
2021/09/30 20:25:45;;;;;;;8.77;4.93;;;;;;;;;;5070367;28;20039;-69
2021/09/30 20:30:01;;;;;;;11.63;5.63;;;;;;;;;;5112091;27;20400;-70
2021/09/30 20:34:12;;;;;;;8.02;5.10;;;;;;;;;;5110890;27;20418;-70
2021/09/30 20:36:39;;;;;;;10.88;5.22;;;;;;;;;;5111333;28;20093;-70
2021/09/30 20:39:35;;;;;;;10.32;5.55;;;;;;;;;;5110866;27;20488;-70
2021/09/30 20:43:30;;;;;;;8.77;5.22;;;;;;;;;;5092136;27;20428;-70
2021/09/30 20:46:49;;;;;;;10.68;5.65;;;;;;;;;;5111004;27;20485;-70
2021/09/30 20:49:16;;;;;;;13.98;5.95;;;;;;;;;;5111235;28;20027;-70